Main page
METAR-TAF:

METAR-TAF

Airports :

Laupheim Air Base

Laupheim, Germany

latitude: 48-13N, longitude: 009-55E, elevation: 538 m

Current weather observation

The report was made 1 hour and 7 minutes ago, at 15:20 UTC
Wind 9 kt from the East
Temperature 13°C
Humidity 35%
Pressure 1021 hPa
Visibility 10 km or more
Few clouds at a height of 5000 ft

METAR: ETHL 041520Z 08009KT 9999 FEW050 13/M02 Q1021 BLU+

Time: 18:27 (16:27 UTC)

Forecast

The report was made 31 hours and 27 minutes ago, at 09:00 UTC
Forecast valid from 03 at 08 UTC to 03 at 17 UTC
Wind 7 kt from the Southwest
Visibility: 1000 m
Few clouds at a height of 6000 ft

TAF: ETHL 030900Z 0308/0317 23007KT 9999 NSW FEW060 CANCEL 1000

Weather observations and forecasts of more than 4000 airports (METAR and TAF reports).

The available stations are represented by yellow and red dots on the map.

Hover mouse over dot to see the name of the station.

Then click to see weather observations and forecasts.

To change the map : click on the green buttons with a black cross to zoom in, on the green button with a dash to zoom out, or on the green arrows for adjacent maps.


METAR-TAF: